Time;durP1;ratioP1;P1;durP2;ratioP2;P2;SDS_P1;SDS_P2;PMS_P1;PMS_P2;Temp;Humidity;BMP_temperature;BMP_pressure;BME280_temperature;BME280_humidity;BME280_pressure;Samples;Min_cycle;Max_cycle;Signal;HPM_P1;HPM_P2
2021/01/14 00:02:02;;;;;;;;;;;;;;;5.50;53.02;99833.88;5946171;23;98833;-77
2021/01/14 00:04:28;;;;;;;;;;;;;;;5.01;55.48;99822.16;5949246;23;96796;-78
2021/01/14 00:06:55;;;;;;;;;;;;;;;5.14;56.15;99834.00;5951652;23;96738;-77
2021/01/14 00:09:21;;;;;;;;;;;;;;;4.91;58.45;99817.22;5950081;23;97606;-78
2021/01/14 00:11:47;;;;;;;;;;;;;;;4.59;59.98;99815.47;5954835;23;99120;-78
2021/01/14 00:14:13;;;;;;;;;;;;;;;4.59;65.33;99823.31;5958923;23;96532;-77
2021/01/14 00:16:39;;;;;;;;;;;;;;;4.75;61.66;99827.22;5956066;23;96654;-78
2021/01/14 00:19:06;;;;;;;;;;;;;;;4.61;61.87;99824.13;5955002;23;98972;-78
2021/01/14 00:21:32;;;;;;;;;;;;;;;4.55;61.88;99824.28;5953313;23;100042;-77
2021/01/14 00:23:58;;;;;;;;;;;;;;;4.80;62.57;99825.34;5952823;23;96873;-78
2021/01/14 00:26:23;;;;;;;;;;;;;;;4.95;63.35;99822.31;5949199;23;96888;-79
2021/01/14 00:28:49;;;;;;;;;;;;;;;4.82;61.16;99839.25;5944487;23;98894;-79
2021/01/14 00:31:15;;;;;;;;;;;;;;;4.00;64.88;99842.16;5943905;23;100965;-79
2021/01/14 00:33:42;;;;;;;;;;;;;;;3.76;66.05;99850.56;5944146;23;96814;-79
2021/01/14 00:36:08;;;;;;;;;;;;;;;4.96;64.20;99841.50;5944371;23;96799;-79
2021/01/14 00:38:33;;;;;;;;;;;;;;;5.22;63.59;99839.91;5943045;23;99200;-78
2021/01/14 00:40:59;;;;;;;;;;;;;;;5.33;61.73;99844.81;5943405;23;98907;-79
2021/01/14 00:43:25;;;;;;;;;;;;;;;4.87;63.44;99840.00;5944119;23;96718;-79
2021/01/14 00:45:51;;;;;;;;;;;;;;;4.89;63.53;99848.69;5941892;23;97092;-79
2021/01/14 00:48:16;;;;;;;;;;;;;;;4.25;65.62;99837.25;5943195;23;98874;-79
2021/01/14 00:50:43;;;;;;;;;;;;;;;4.59;64.47;99839.88;5945243;23;98844;-79
2021/01/14 00:53:09;;;;;;;;;;;;;;;4.54;64.49;99827.78;5947215;23;96670;-79
2021/01/14 00:55:35;;;;;;;;;;;;;;;4.43;64.56;99841.16;5942501;23;96697;-79
2021/01/14 00:58:01;;;;;;;;;;;;;;;4.36;64.02;99858.75;5942712;23;99269;-79
2021/01/14 01:00:27;;;;;;;;;;;;;;;4.60;64.80;99859.88;5942333;23;99331;-79
2021/01/14 01:02:53;;;;;;;;;;;;;;;5.27;62.93;99860.72;5942118;23;96683;-79
2021/01/14 01:05:19;;;;;;;;;;;;;;;5.14;61.57;99868.06;5942199;23;96785;-78
2021/01/14 01:07:49;;;;;;;;;;;;;;;4.91;62.28;99872.19;5941485;23;99356;-78
2021/01/14 01:10:15;;;;;;;;;;;;;;;4.77;62.81;99867.31;5941508;23;98853;-79
2021/01/14 01:12:41;;;;;;;;;;;;;;;5.04;62.11;99876.22;5943122;23;96758;-79
2021/01/14 01:15:07;;;;;;;;;;;;;;;4.63;63.17;99879.91;5942919;23;96770;-79
2021/01/14 01:20:14;;;;;;;;;;;;;;;4.78;63.61;99887.38;5940698;23;99319;-77
2021/01/14 01:22:40;;;;;;;;;;;;;;;5.11;62.76;99896.09;5942981;23;96853;-78
2021/01/14 01:25:08;;;;;;;;;;;;;;;4.93;63.21;99888.72;5943660;23;97053;-78
2021/01/14 01:27:34;;;;;;;;;;;;;;;5.61;62.16;99889.44;5942754;23;98426;-78
2021/01/14 01:30:00;;;;;;;;;;;;;;;5.23;62.66;99903.63;5949039;23;101734;-78
2021/01/14 01:32:26;;;;;;;;;;;;;;;5.14;62.71;99906.47;5946523;23;96784;-79
2021/01/14 01:34:52;;;;;;;;;;;;;;;5.34;62.57;99916.41;5942677;23;97274;-78
2021/01/14 01:37:17;;;;;;;;;;;;;;;4.62;64.48;99931.38;5943154;23;99501;-79
2021/01/14 01:39:43;;;;;;;;;;;;;;;3.77;68.32;99945.50;5943255;23;99115;-78
2021/01/14 01:42:10;;;;;;;;;;;;;;;4.00;67.61;99949.34;5944988;23;96662;-78
2021/01/14 01:44:36;;;;;;;;;;;;;;;4.09;68.37;99950.03;5944961;23;96800;-78
2021/01/14 01:47:05;;;;;;;;;;;;;;;3.55;68.88;99958.97;5945954;23;98962;-78
2021/01/14 01:49:31;;;;;;;;;;;;;;;3.09;71.37;99971.16;5949227;23;101670;-78
2021/01/14 01:51:57;;;;;;;;;;;;;;;3.18;70.71;99979.72;5954210;23;96794;-78
2021/01/14 01:54:23;;;;;;;;;;;;;;;3.66;69.25;99982.31;5961172;23;96844;-77
2021/01/14 01:56:49;;;;;;;;;;;;;;;3.49;69.39;99993.06;5960770;23;97956;-77
2021/01/14 01:59:17;;;;;;;;;;;;;;;3.26;70.61;99995.25;5954323;23;101942;-78
2021/01/14 02:01:43;;;;;;;;;;;;;;;3.22;69.60;100004.00;5961859;23;96586;-78
2021/01/14 02:04:09;;;;;;;;;;;;;;;3.42;68.77;100014.97;5959842;23;96688;-78
2021/01/14 02:06:37;;;;;;;;;;;;;;;4.01;67.00;100020.78;5957433;23;99773;-79
2021/01/14 02:09:06;;;;;;;;;;;;;;;3.07;68.58;100030.38;5951245;23;97982;-79
2021/01/14 02:11:34;;;;;;;;;;;;;;;3.63;67.55;100042.44;5956235;23;96569;-78
2021/01/14 02:14:09;;;;;;;;;;;;;;;3.56;67.99;100049.53;5959180;23;96724;-77
2021/01/14 02:16:37;;;;;;;;;;;;;;;3.59;66.78;100065.16;5963650;23;98216;-78
2021/01/14 02:19:04;;;;;;;;;;;;;;;3.81;65.92;100088.25;5962481;23;97592;-78
2021/01/14 02:21:31;;;;;;;;;;;;;;;3.85;65.82;100089.94;5961811;23;96528;-77
2021/01/14 02:23:58;;;;;;;;;;;;;;;3.64;66.58;100108.63;5963921;23;96560;-77
2021/01/14 02:26:25;;;;;;;;;;;;;;;3.61;66.14;100110.38;5965233;23;98291;-78
2021/01/14 02:28:52;;;;;;;;;;;;;;;3.45;66.75;100124.63;5964457;23;99750;-77
2021/01/14 02:31:19;;;;;;;;;;;;;;;3.51;66.56;100132.34;5963443;23;96549;-78
2021/01/14 02:33:47;;;;;;;;;;;;;;;3.69;65.99;100140.75;5961604;23;96555;-77
2021/01/14 02:36:13;;;;;;;;;;;;;;;3.82;64.81;100142.25;5956848;23;97803;-78
2021/01/14 02:38:39;;;;;;;;;;;;;;;3.75;65.85;100154.56;5952482;23;99197;-78
2021/01/14 02:41:05;;;;;;;;;;;;;;;3.65;65.27;100163.47;5948096;23;96723;-78
2021/01/14 02:43:32;;;;;;;;;;;;;;;3.50;65.50;100168.94;5946164;23;96657;-78
2021/01/14 02:45:58;;;;;;;;;;;;;;;3.60;65.44;100181.84;5945753;23;101431;-78
2021/01/14 02:48:28;;;;;;;;;;;;;;;3.64;65.40;100194.84;5943960;23;98930;-78
2021/01/14 02:50:56;;;;;;;;;;;;;;;4.19;63.92;100195.63;5944156;23;96698;-78
2021/01/14 02:53:22;;;;;;;;;;;;;;;4.45;62.29;100204.75;5943882;23;96782;-78
2021/01/14 02:55:50;;;;;;;;;;;;;;;4.17;63.48;100204.38;5944047;23;101764;-78
2021/01/14 02:58:16;;;;;;;;;;;;;;;4.21;63.77;100209.53;5944085;23;98855;-78
2021/01/14 03:00:42;;;;;;;;;;;;;;;3.83;64.68;100232.84;5943715;23;97004;-78
2021/01/14 03:03:08;;;;;;;;;;;;;;;3.39;66.65;100234.41;5943308;23;96879;-78
2021/01/14 03:05:34;;;;;;;;;;;;;;;3.77;65.65;100236.44;5944221;23;100229;-78
2021/01/14 03:08:00;;;;;;;;;;;;;;;3.92;64.73;100245.78;5943678;23;98071;-78
2021/01/14 03:10:26;;;;;;;;;;;;;;;4.28;64.10;100258.22;5943093;23;96990;-77
2021/01/14 03:12:52;;;;;;;;;;;;;;;3.96;64.02;100270.97;5943982;23;96846;-78
2021/01/14 03:15:17;;;;;;;;;;;;;;;4.10;63.96;100283.81;5943816;23;99290;-78
2021/01/14 03:17:44;;;;;;;;;;;;;;;3.69;65.37;100293.16;5943962;23;98793;-78
2021/01/14 03:20:10;;;;;;;;;;;;;;;3.79;65.39;100286.06;5943381;23;97129;-78
2021/01/14 03:22:39;;;;;;;;;;;;;;;3.78;66.10;100297.41;5943703;23;96923;-79
2021/01/14 03:25:06;;;;;;;;;;;;;;;4.26;63.13;100307.09;5943198;23;99114;-78
2021/01/14 03:27:35;;;;;;;;;;;;;;;3.79;64.79;100315.69;5944088;23;97714;-78
2021/01/14 03:30:01;;;;;;;;;;;;;;;4.11;64.51;100317.78;5943243;23;97025;-77
2021/01/14 03:32:27;;;;;;;;;;;;;;;3.55;65.80;100323.84;5943072;23;97313;-77
2021/01/14 03:34:54;;;;;;;;;;;;;;;4.00;64.51;100335.41;5942842;23;98885;-78
2021/01/14 03:37:19;;;;;;;;;;;;;;;4.06;64.47;100353.63;5942175;23;100450;-78
2021/01/14 03:39:45;;;;;;;;;;;;;;;3.54;66.29;100345.66;5942384;23;96780;-78
2021/01/14 03:42:11;;;;;;;;;;;;;;;3.55;66.52;100350.84;5943230;23;97008;-78
2021/01/14 03:44:37;;;;;;;;;;;;;;;4.03;64.95;100358.88;5943839;23;98032;-78
2021/01/14 03:47:25;;;;;;;;;;;;;;;3.92;65.81;100376.47;5946024;23;98805;-77
2021/01/14 03:49:51;;;;;;;;;;;;;;;3.69;66.55;100378.53;5932158;23;96770;-78
2021/01/14 03:52:18;;;;;;;;;;;;;;;4.00;65.43;100390.31;5944872;23;96819;-77
2021/01/14 03:54:45;;;;;;;;;;;;;;;3.85;66.12;100398.38;5945848;23;101801;-76
2021/01/14 03:57:11;;;;;;;;;;;;;;;4.19;64.59;100404.84;5944806;23;99075;-77
2021/01/14 03:59:37;;;;;;;;;;;;;;;3.79;66.25;100412.38;5947933;23;96801;-77
2021/01/14 04:02:06;;;;;;;;;;;;;;;4.55;64.31;100426.94;5948698;23;96794;-78
2021/01/14 04:04:32;;;;;;;;;;;;;;;4.39;63.99;100431.56;5946716;23;99400;-78
2021/01/14 04:06:58;;;;;;;;;;;;;;;4.09;64.92;100439.84;5945202;23;100455;-78
2021/01/14 04:09:25;;;;;;;;;;;;;;;4.70;63.86;100438.91;5950330;23;96813;-78
2021/01/14 04:11:51;;;;;;;;;;;;;;;4.17;65.23;100461.53;5949175;23;96671;-78
2021/01/14 04:14:20;;;;;;;;;;;;;;;4.18;64.71;100457.16;5950993;23;99082;-77
2021/01/14 04:16:48;;;;;;;;;;;;;;;4.13;65.19;100465.09;5950695;23;98036;-77
2021/01/14 04:19:14;;;;;;;;;;;;;;;3.97;64.76;100469.63;5952928;23;97246;-77
2021/01/14 04:21:40;;;;;;;;;;;;;;;3.49;67.17;100476.31;5947033;23;97066;-79
2021/01/14 04:24:06;;;;;;;;;;;;;;;3.80;66.09;100481.19;5944052;23;99281;-78
2021/01/14 04:26:33;;;;;;;;;;;;;;;4.00;65.21;100495.72;5943555;23;97813;-79
2021/01/14 04:28:58;;;;;;;;;;;;;;;3.87;65.41;100494.16;5943555;23;96682;-78
2021/01/14 04:31:24;;;;;;;;;;;;;;;4.04;65.17;100506.16;5943856;23;96856;-78
2021/01/14 04:33:50;;;;;;;;;;;;;;;4.04;65.28;100514.00;5943867;23;99304;-78
2021/01/14 04:36:16;;;;;;;;;;;;;;;4.42;64.30;100516.97;5944158;23;98927;-78
2021/01/14 04:38:42;;;;;;;;;;;;;;;4.64;63.24;100528.88;5944573;23;97290;-77
2021/01/14 04:41:08;;;;;;;;;;;;;;;4.14;64.99;100540.00;5944872;23;96914;-78
2021/01/14 04:43:35;;;;;;;;;;;;;;;4.27;64.37;100545.94;5945121;23;99310;-78
2021/01/14 04:46:04;;;;;;;;;;;;;;;4.39;64.44;100557.16;5943277;23;99047;-78
2021/01/14 04:48:30;;;;;;;;;;;;;;;4.38;64.19;100568.50;5942840;23;96723;-78
2021/01/14 04:50:58;;;;;;;;;;;;;;;4.58;63.94;100567.34;5943178;23;96899;-78
2021/01/14 04:53:26;;;;;;;;;;;;;;;4.43;64.43;100575.41;5942895;23;98922;-79
2021/01/14 04:55:56;;;;;;;;;;;;;;;4.67;63.53;100583.78;5943226;23;98930;-79
2021/01/14 04:58:21;;;;;;;;;;;;;;;4.31;64.28;100598.22;5943384;23;97156;-78
2021/01/14 05:00:49;;;;;;;;;;;;;;;4.59;64.54;100595.25;5943419;23;96790;-78
2021/01/14 05:03:20;;;;;;;;;;;;;;;4.58;64.06;100604.84;5943160;23;98100;-78
2021/01/14 05:05:47;;;;;;;;;;;;;;;4.15;65.14;100616.72;5942434;23;99655;-78
2021/01/14 05:08:14;;;;;;;;;;;;;;;4.49;64.59;100619.78;5943460;23;96855;-78
2021/01/14 05:10:40;;;;;;;;;;;;;;;4.69;63.84;100617.78;5943006;23;97271;-78
2021/01/14 05:13:07;;;;;;;;;;;;;;;4.71;62.87;100631.72;5942971;23;99044;-78
2021/01/14 05:15:34;;;;;;;;;;;;;;;4.61;63.60;100630.97;5943835;23;99163;-77
2021/01/14 05:18:01;;;;;;;;;;;;;;;4.23;65.17;100639.28;5944062;23;96750;-77
2021/01/14 05:20:27;;;;;;;;;;;;;;;4.38;64.24;100646.97;5944340;23;96813;-78
2021/01/14 05:22:57;;;;;;;;;;;;;;;4.62;63.78;100658.00;5943838;23;97787;-77
2021/01/14 05:25:23;;;;;;;;;;;;;;;4.60;63.49;100665.00;5943044;23;99191;-78
2021/01/14 05:27:49;;;;;;;;;;;;;;;4.80;63.30;100663.00;5943140;23;96779;-78
2021/01/14 05:30:15;;;;;;;;;;;;;;;4.73;63.18;100671.81;5943496;23;96845;-77
2021/01/14 05:32:42;;;;;;;;;;;;;;;4.93;63.54;100679.41;5943102;23;98845;-78
2021/01/14 05:35:10;;;;;;;;;;;;;;;5.09;62.54;100681.81;5943501;23;98954;-77
2021/01/14 05:37:36;;;;;;;;;;;;;;;4.51;64.69;100693.91;5943201;23;96990;-78
2021/01/14 05:40:03;;;;;;;;;;;;;;;4.76;63.94;100697.97;5942166;23;97019;-78
2021/01/14 05:42:29;;;;;;;;;;;;;;;4.81;63.21;100706.63;5941938;23;99050;-78
2021/01/14 05:44:55;;;;;;;;;;;;;;;4.82;63.35;100703.13;5942208;23;101572;-78
2021/01/14 05:47:21;;;;;;;;;;;;;;;5.03;62.86;100704.59;5942656;23;96665;-78
2021/01/14 05:49:53;;;;;;;;;;;;;;;4.48;64.42;100712.25;5942831;23;97177;-78
2021/01/14 05:52:22;;;;;;;;;;;;;;;4.64;63.68;100724.28;5942983;23;99501;-78
2021/01/14 05:54:53;;;;;;;;;;;;;;;4.67;62.83;100719.00;5944165;23;98803;-78
2021/01/14 05:57:19;;;;;;;;;;;;;;;5.18;61.53;100720.97;5944680;23;96697;-78
2021/01/14 05:59:54;;;;;;;;;;;;;;;5.22;61.36;100733.13;5943224;23;96680;-78
2021/01/14 06:02:27;;;;;;;;;;;;;;;4.87;62.36;100734.47;5942198;23;98932;-78
2021/01/14 06:04:53;;;;;;;;;;;;;;;4.29;64.21;100753.44;5942516;23;97748;-78
2021/01/14 06:07:19;;;;;;;;;;;;;;;4.45;64.53;100764.63;5944119;23;96730;-78
2021/01/14 06:09:48;;;;;;;;;;;;;;;4.80;62.90;100768.59;5942543;23;96876;-78
2021/01/14 06:12:15;;;;;;;;;;;;;;;4.83;62.49;100778.16;5941178;23;99388;-79
2021/01/14 06:14:40;;;;;;;;;;;;;;;5.03;62.05;100776.19;5942414;23;99275;-78
2021/01/14 06:17:07;;;;;;;;;;;;;;;5.26;61.44;100777.63;5942913;23;97156;-78
2021/01/14 06:19:34;;;;;;;;;;;;;;;4.84;62.91;100793.00;5942272;23;96769;-78
2021/01/14 06:22:00;;;;;;;;;;;;;;;4.52;63.93;100795.97;5942277;23;101083;-79
2021/01/14 06:24:26;;;;;;;;;;;;;;;4.47;64.32;100802.97;5942829;23;100370;-78
2021/01/14 06:26:54;;;;;;;;;;;;;;;4.47;64.50;100816.06;5942427;23;97362;-78
2021/01/14 06:29:21;;;;;;;;;;;;;;;4.48;65.01;100819.53;5944673;23;96809;-79
2021/01/14 06:31:47;;;;;;;;;;;;;;;4.40;65.22;100827.44;5942288;23;98158;-79
2021/01/14 06:34:14;;;;;;;;;;;;;;;4.48;65.04;100840.47;5942654;23;98948;-78
2021/01/14 06:36:41;;;;;;;;;;;;;;;4.81;63.00;100848.00;5942618;23;97102;-78
2021/01/14 06:39:14;;;;;;;;;;;;;;;4.48;64.73;100856.16;5943350;23;96851;-78
2021/01/14 06:41:41;;;;;;;;;;;;;;;4.73;64.21;100861.16;5942963;23;99388;-79
2021/01/14 06:44:08;;;;;;;;;;;;;;;5.08;62.93;100873.91;5943039;23;99184;-79
2021/01/14 06:46:35;;;;;;;;;;;;;;;4.91;63.08;100885.44;5945183;23;96861;-78
2021/01/14 06:49:06;;;;;;;;;;;;;;;4.36;63.81;100885.94;5944162;23;96862;-79
2021/01/14 06:51:46;;;;;;;;;;;;;;;4.61;63.41;100889.19;5944782;23;99410;-78
2021/01/14 06:54:12;;;;;;;;;;;;;;;4.77;62.41;100888.19;5947164;23;98721;-79
2021/01/14 06:56:46;;;;;;;;;;;;;;;4.81;62.33;100896.00;5944131;23;96808;-79
2021/01/14 06:59:16;;;;;;;;;;;;;;;5.01;61.23;100898.41;5945616;23;97268;-79
2021/01/14 07:01:45;;;;;;;;;;;;;;;5.18;60.88;100922.69;5946488;23;101112;-78
2021/01/14 07:04:21;;;;;;;;;;;;;;;4.62;62.50;100923.22;5951354;23;101269;-77
2021/01/14 07:07:00;;;;;;;;;;;;;;;4.65;62.61;100930.19;5956727;23;97157;-78
2021/01/14 07:09:29;;;;;;;;;;;;;;;4.61;62.48;100944.16;5962283;23;96735;-78
2021/01/14 07:11:59;;;;;;;;;;;;;;;5.11;60.44;100946.34;5962451;23;100581;-78
2021/01/14 07:14:29;;;;;;;;;;;;;;;5.18;60.77;100956.75;5950834;23;97856;-79
2021/01/14 07:16:58;;;;;;;;;;;;;;;5.30;59.60;100961.00;5947596;23;96959;-79
2021/01/14 07:19:24;;;;;;;;;;;;;;;5.30;59.74;100967.97;5948025;23;96853;-79
2021/01/14 07:21:51;;;;;;;;;;;;;;;5.41;58.64;100966.97;5947166;23;101146;-78
2021/01/14 07:24:18;;;;;;;;;;;;;;;5.03;60.23;100975.22;5947204;23;99116;-79
2021/01/14 07:26:45;;;;;;;;;;;;;;;5.39;59.90;100983.59;5950499;23;97052;-77
2021/01/14 07:29:12;;;;;;;;;;;;;;;4.79;61.34;100989.38;5949207;23;97099;-77
2021/01/14 07:31:46;;;;;;;;;;;;;;;4.71;62.55;101006.06;5949902;23;102626;-77
2021/01/14 07:34:30;;;;;;;;;;;;;;;4.49;63.43;101007.06;5952078;23;96638;-77
2021/01/14 07:36:56;;;;;;;;;;;;;;;4.69;62.64;101015.66;5953752;23;97054;-78
2021/01/14 07:39:44;;;;;;;;;;;;;;;4.62;62.37;101019.19;5950256;23;96804;-77
2021/01/14 07:42:10;;;;;;;;;;;;;;;4.30;64.01;101022.88;5954173;23;99063;-77
2021/01/14 07:44:37;;;;;;;;;;;;;;;4.85;62.22;101032.13;5953510;23;98967;-77
2021/01/14 07:47:12;;;;;;;;;;;;;;;4.72;62.32;101036.59;5954515;23;96972;-79
2021/01/14 07:49:39;;;;;;;;;;;;;;;5.68;60.09;101044.44;5952235;23;96683;-79
2021/01/14 07:52:07;;;;;;;;;;;;;;;5.83;59.18;101040.78;5953226;23;99265;-79
2021/01/14 07:54:34;;;;;;;;;;;;;;;5.98;58.47;101043.25;5948549;23;100172;-79
2021/01/14 07:57:02;;;;;;;;;;;;;;;5.54;60.34;101056.81;5951833;23;96683;-79
2021/01/14 07:59:29;;;;;;;;;;;;;;;6.04;59.10;101058.06;5948438;23;96763;-80
2021/01/14 08:02:02;;;;;;;;;;;;;;;5.92;58.77;101059.06;5952122;23;100372;-81
2021/01/14 08:04:29;;;;;;;;;;;;;;;6.02;58.99;101075.59;5951896;23;99575;-80
2021/01/14 08:06:55;;;;;;;;;;;;;;;6.03;59.20;101078.19;5950111;23;96736;-80
2021/01/14 08:09:21;;;;;;;;;;;;;;;6.20;58.42;101077.97;5941896;23;97273;-81
2021/01/14 08:11:58;;;;;;;;;;;;;;;5.99;58.64;101085.22;5944524;23;100905;-81
2021/01/14 08:14:43;;;;;;;;;;;;;;;6.75;56.72;101086.88;5944098;23;100660;-78
2021/01/14 08:17:23;;;;;;;;;;;;;;;6.38;57.72;101093.47;5941532;23;96738;-80
2021/01/14 08:19:51;;;;;;;;;;;;;;;7.03;55.74;101099.56;5942959;23;96947;-81
2021/01/14 08:22:18;;;;;;;;;;;;;;;6.86;55.94;101093.72;5944907;23;100323;-79
2021/01/14 08:24:45;;;;;;;;;;;;;;;7.14;55.39;101097.66;5943819;23;97705;-80
2021/01/14 08:27:12;;;;;;;;;;;;;;;7.11;55.41;101097.69;5943143;23;97755;-80
2021/01/14 08:29:42;;;;;;;;;;;;;;;6.73;56.53;101111.41;5944986;23;96972;-81
2021/01/14 08:32:31;;;;;;;;;;;;;;;6.96;55.70;101111.94;5943926;23;98739;-81
2021/01/14 08:34:59;;;;;;;;;;;;;;;6.40;57.35;101117.97;5942806;23;97209;-80
2021/01/14 08:37:32;;;;;;;;;;;;;;;6.35;57.75;101127.66;5942041;23;97215;-80
2021/01/14 08:40:01;;;;;;;;;;;;;;;5.80;60.04;101149.22;5942683;23;96844;-80
2021/01/14 08:42:34;;;;;;;;;;;;;;;5.74;60.41;101156.25;5943331;23;97663;-81
2021/01/14 08:45:01;;;;;;;;;;;;;;;5.27;62.02;101149.66;5943273;23;100709;-81
2021/01/14 08:47:46;;;;;;;;;;;;;;;5.02;63.68;101156.81;5962682;23;96779;-81
2021/01/14 08:50:13;;;;;;;;;;;;;;;6.15;59.85;101161.13;5964075;23;96608;-80
2021/01/14 08:52:43;;;;;;;;;;;;;;;5.90;60.97;101163.16;5962119;23;100210;-81
2021/01/14 08:55:13;;;;;;;;;;;;;;;6.16;60.29;101171.63;5960692;23;98873;-79
2021/01/14 08:57:50;;;;;;;;;;;;;;;6.08;60.74;101169.94;5952413;23;96954;-79
2021/01/14 09:00:17;;;;;;;;;;;;;;;6.05;60.68;101176.09;5951572;23;96704;-80
2021/01/14 09:02:43;;;;;;;;;;;;;;;5.70;61.66;101186.91;5946497;23;101469;-80
2021/01/14 09:05:10;;;;;;;;;;;;;;;5.47;62.21;101186.19;5949088;23;99496;-80
2021/01/14 09:07:37;;;;;;;;;;;;;;;5.11;64.10;101190.84;5949972;23;97203;-80
2021/01/14 09:10:04;;;;;;;;;;;;;;;5.25;63.94;101189.88;5948196;23;96691;-80
2021/01/14 09:12:35;;;;;;;;;;;;;;;5.55;62.82;101194.88;5951481;23;101354;-79
2021/01/14 09:15:01;;;;;;;;;;;;;;;5.42;62.67;101204.59;5948361;23;99530;-80
2021/01/14 09:17:27;;;;;;;;;;;;;;;4.85;65.21;101208.44;5946101;23;97211;-82
2021/01/14 09:19:54;;;;;;;;;;;;;;;5.32;64.05;101217.75;5944992;23;97714;-81
2021/01/14 09:22:24;;;;;;;;;;;;;;;5.28;64.08;101222.16;5948971;23;100959;-81
2021/01/14 09:24:52;;;;;;;;;;;;;;;5.84;62.14;101220.88;5957375;23;100101;-82
2021/01/14 09:27:18;;;;;;;;;;;;;;;5.67;62.89;101228.88;5962331;23;96628;-81
2021/01/14 09:29:44;;;;;;;;;;;;;;;4.60;66.20;101241.69;5952669;23;96840;-80
2021/01/14 09:32:12;;;;;;;;;;;;;;;5.01;65.44;101235.41;5949678;23;101335;-81
2021/01/14 09:34:38;;;;;;;;;;;;;;;5.13;65.28;101240.56;5953491;23;99242;-82
2021/01/14 09:37:04;;;;;;;;;;;;;;;5.18;64.61;101252.78;5955058;23;97233;-80
2021/01/14 09:39:34;;;;;;;;;;;;;;;5.04;65.31;101251.13;5950650;23;96667;-80
2021/01/14 09:42:03;;;;;;;;;;;;;;;4.95;66.08;101252.03;5950613;23;100196;-80
2021/01/14 09:44:30;;;;;;;;;;;;;;;5.09;65.46;101251.97;5952380;23;99430;-81
2021/01/14 09:46:57;;;;;;;;;;;;;;;4.98;65.30;101254.63;5951004;23;96742;-80
2021/01/14 09:49:23;;;;;;;;;;;;;;;5.52;64.09;101257.81;5952853;23;97056;-82
2021/01/14 09:51:52;;;;;;;;;;;;;;;5.43;63.52;101273.59;5948680;23;100292;-80
2021/01/14 09:54:20;;;;;;;;;;;;;;;5.27;64.83;101262.34;5948569;23;100824;-80
2021/01/14 09:56:48;;;;;;;;;;;;;;;5.19;65.77;101271.97;5949603;23;96691;-81
2021/01/14 09:59:19;;;;;;;;;;;;;;;5.42;64.56;101261.38;5951684;23;96800;-81
2021/01/14 10:01:51;;;;;;;;;;;;;;;6.12;61.93;101261.72;5951576;23;100259;-82
2021/01/14 10:07:04;;;;;;;;;;;;;;;5.82;63.62;101268.09;5950250;23;96691;-80
2021/01/14 10:09:33;;;;;;;;;;;;;;;5.54;63.47;101277.03;5926611;23;96821;-80
2021/01/14 10:12:00;;;;;;;;;;;;;;;6.05;62.37;101278.41;5945332;23;99560;-79
2021/01/14 10:14:28;;;;;;;;;;;;;;;5.70;63.50;101288.28;5945607;23;101125;-80
2021/01/14 10:20:03;;;;;;;;;;;;;;;5.98;62.38;101287.22;5949651;23;96983;-81
2021/01/14 10:22:30;;;;;;;;;;;;;;;6.03;61.87;101288.06;5958487;23;101817;-82
2021/01/14 10:25:04;;;;;;;;;;;;;;;5.86;62.38;101300.38;5956152;23;99031;-81
2021/01/14 10:27:32;;;;;;;;;;;;;;;6.30;61.29;101297.47;5956437;23;96706;-79
2021/01/14 10:30:01;;;;;;;;;;;;;;;6.75;59.66;101298.75;5930633;23;96683;-81
2021/01/14 10:32:28;;;;;;;;;;;;;;;6.91;58.78;101307.28;5955133;23;100566;-81
2021/01/14 10:34:56;;;;;;;;;;;;;;;5.73;62.11;101315.34;5951474;23;100448;-81
2021/01/14 10:37:25;;;;;;;;;;;;;;;5.20;64.15;101315.63;5927989;23;96799;-82
2021/01/14 10:39:52;;;;;;;;;;;;;;;5.52;63.58;101328.56;5954309;23;96841;-80
2021/01/14 10:42:27;;;;;;;;;;;;;;;5.61;62.62;101325.91;5928168;23;98035;-78
2021/01/14 10:44:53;;;;;;;;;;;;;;;5.69;62.14;101318.00;5949998;23;101921;-79
2021/01/14 10:47:21;;;;;;;;;;;;;;;5.68;62.57;101322.38;5950298;23;96696;-79
2021/01/14 10:49:47;;;;;;;;;;;;;;;5.47;63.04;101318.13;5948832;23;96786;-80
2021/01/14 10:52:13;;;;;;;;;;;;;;;5.92;60.63;101322.22;5947479;23;99281;-79
2021/01/14 10:54:39;;;;;;;;;;;;;;;6.03;60.39;101326.53;5951866;23;100831;-80
2021/01/14 10:57:05;;;;;;;;;;;;;;;5.59;61.54;101317.19;5948294;23;96866;-79
2021/01/14 10:59:31;;;;;;;;;;;;;;;6.59;58.43;101321.66;5948457;23;97031;-80
2021/01/14 11:02:04;;;;;;;;;;;;;;;6.78;57.87;101317.06;5947527;23;101634;-78
2021/01/14 11:04:31;;;;;;;;;;;;;;;6.65;57.79;101313.72;5943292;23;99270;-78
2021/01/14 11:06:57;;;;;;;;;;;;;;;6.51;57.71;101323.47;5944432;23;96710;-81
2021/01/14 11:09:23;;;;;;;;;;;;;;;6.00;59.81;101335.31;5944166;23;97189;-79
2021/01/14 11:11:48;;;;;;;;;;;;;;;6.13;59.41;101336.06;5943005;23;99504;-79
2021/01/14 11:14:15;;;;;;;;;;;;;;;5.94;59.61;101325.72;5948167;23;96676;-80
2021/01/14 11:16:41;;;;;;;;;;;;;;;6.38;59.45;101316.59;5946878;23;96661;-79
2021/01/14 11:19:08;;;;;;;;;;;;;;;6.58;57.53;101314.66;5948301;23;96797;-79
2021/01/14 11:21:38;;;;;;;;;;;;;;;6.62;57.87;101310.25;5948512;23;99077;-79
2021/01/14 11:24:06;;;;;;;;;;;;;;;6.34;57.90;101309.66;5946893;23;96875;-78
2021/01/14 11:26:32;;;;;;;;;;;;;;;6.64;57.08;101317.22;5949125;23;96717;-79
2021/01/14 11:28:58;;;;;;;;;;;;;;;6.52;57.57;101314.72;5952996;23;96777;-79
2021/01/14 11:31:26;;;;;;;;;;;;;;;7.29;56.03;101320.84;5946808;23;100842;-79
2021/01/14 11:33:52;;;;;;;;;;;;;;;7.33;55.20;101316.41;5948866;23;101484;-79
2021/01/14 11:36:22;;;;;;;;;;;;;;;7.88;53.75;101321.75;5951083;23;97059;-80
2021/01/14 11:38:50;;;;;;;;;;;;;;;7.40;54.78;101318.09;5950373;23;96681;-78
2021/01/14 11:41:17;;;;;;;;;;;;;;;7.64;55.14;101320.38;5952916;23;98510;-78
2021/01/14 11:43:42;;;;;;;;;;;;;;;8.14;53.19;101324.84;5955034;23;99525;-79
2021/01/14 11:46:11;;;;;;;;;;;;;;;7.35;55.07;101325.16;5955014;23;97121;-77
2021/01/14 11:48:37;;;;;;;;;;;;;;;7.84;54.08;101320.06;5954635;23;96684;-77
2021/01/14 11:51:03;;;;;;;;;;;;;;;7.51;54.57;101330.19;5956734;23;99413;-80
2021/01/14 11:53:30;;;;;;;;;;;;;;;7.33;55.67;101327.81;5955672;23;99377;-79
2021/01/14 11:56:05;;;;;;;;;;;;;;;6.98;56.32;101333.47;5928462;23;96651;-80
2021/01/14 11:58:32;;;;;;;;;;;;;;;7.31;55.97;101329.56;5952508;23;97247;-80
2021/01/14 12:00:58;;;;;;;;;;;;;;;7.48;55.89;101330.22;5950502;23;100092;-80
2021/01/14 12:03:24;;;;;;;;;;;;;;;7.71;54.97;101331.66;5949818;23;98912;-80
2021/01/14 12:05:50;;;;;;;;;;;;;;;7.47;55.31;101330.25;5926699;23;96821;-80
2021/01/14 12:08:32;;;;;;;;;;;;;;;7.67;55.40;101340.50;5944152;23;97636;-79
2021/01/14 12:11:05;;;;;;;;;;;;;;;7.53;55.44;101338.94;5925101;23;98211;-80
2021/01/14 12:13:31;;;;;;;;;;;;;;;7.59;54.73;101336.22;5927406;23;101858;-79
2021/01/14 12:15:57;;;;;;;;;;;;;;;7.36;55.59;101354.03;5927939;23;96749;-79
2021/01/14 12:18:23;;;;;;;;;;;;;;;8.04;53.88;101344.31;5925992;23;96821;-80
2021/01/14 12:20:49;;;;;;;;;;;;;;;8.17;53.73;101348.50;5923720;23;100896;-79
2021/01/14 12:23:15;;;;;;;;;;;;;;;7.67;54.56;101348.41;5920788;23;101711;-81
2021/01/14 12:25:41;;;;;;;;;;;;;;;7.17;55.29;101353.41;5919475;23;96618;-80
2021/01/14 12:28:08;;;;;;;;;;;;;;;7.35;55.63;101352.28;5916908;23;96844;-80
2021/01/14 12:30:34;;;;;;;;;;;;;;;7.75;54.20;101355.25;5917212;23;99399;-80
2021/01/14 12:33:00;;;;;;;;;;;;;;;7.22;55.57;101351.59;5917892;23;98838;-80
2021/01/14 12:35:25;;;;;;;;;;;;;;;7.58;54.39;101352.00;5919680;23;96677;-79
2021/01/14 12:37:51;;;;;;;;;;;;;;;6.71;56.27;101357.41;5921894;23;96879;-81
2021/01/14 12:40:17;;;;;;;;;;;;;;;7.55;54.51;101350.28;5922115;23;99021;-80
2021/01/14 12:42:46;;;;;;;;;;;;;;;7.19;54.54;101356.03;5923027;23;100750;-80
2021/01/14 12:45:13;;;;;;;;;;;;;;;6.89;56.01;101352.00;5922325;23;97135;-79
2021/01/14 12:47:41;;;;;;;;;;;;;;;7.21;55.04;101354.25;5917943;23;96712;-80
2021/01/14 12:50:07;;;;;;;;;;;;;;;7.19;55.07;101350.75;5916158;23;101116;-79
2021/01/14 12:52:33;;;;;;;;;;;;;;;6.98;56.00;101356.25;5916788;23;97825;-78
2021/01/14 12:54:59;;;;;;;;;;;;;;;6.64;56.24;101356.59;5916788;23;96661;-78
2021/01/14 12:57:25;;;;;;;;;;;;;;;6.80;55.34;101360.84;5922228;23;96902;-80